Bogota, Colombia
Current Conditions -  °F | °C
As of 7:00 AM on Tuesday 21 Oct 2014 (Local Time) from SKBO Reporting Station
Scattered Clouds Scattered Clouds  
Wind Chill: 13°   Ceiling: Unl
Heat Index: 13°   Visibility: 6mi
Dew Point: 10°   Wind: 5mph
Humidity: 82%   Direction: 50°NE
Pressure: 30.35"   Gusts: NA
Location:  4.63°N, 74.09°W
Report Text: SKBO 211200Z 05004KT 9999 FEW020 SCT200 13/10 A3035
Loading
Personal Weather Stations






























Interactive Weather Map
Tropical Storm Tracking
New forecast layout! Learn more

10-Day Weather Forecast

Advertisements
Track Severe Weather on mobile